Pacific Titan — WCZ6844 — position and weather

sailwx.info

Track history (hours):
 
Tides and Currents Weather Stations Pressure Air Temp Water Temp Dewpoint Dewpoint Depression Visibility Wind Speed Wind Dir Waves Ship Positions

Pacific Titan

Owner: WESTERN TOWBOAT CO, SEATTLE, WA. More information available from US FCC via Universal Licensing System and Coast Guard Vessel Documentation Center.

Last reported at 2016-Aug-24 02:33 UTC. Time now 2016-Aug-26 01:26 UTC.
Position N 47°40' W 122°24'.

Type: Tow > 200 m length. MMSI: 338855000.

Date/timePositionNaut miles runAvg speedWind from/ knotsBaromVisibWave heightAir tempDewpointWater temp
2016-Aug-24 02:33N 47°40' W 122°24'4 4.4
2016-Aug-24 01:34N 47°36' W 122°22'4 4.1
2016-Aug-24 00:34N 47°38' W 122°27'9 8.9
2016-Aug-23 23:33N 47°47' W 122°27'1010.0
2016-Aug-23 22:33N 47°56' W 122°33'9 9.0
2016-Aug-23 21:30N 48°05' W 122°40'7 7.6
2016-Aug-23 20:32N 48°10' W 122°47'9 9.3
2016-Aug-23 19:32N 48°20' W 122°47'1010.4
2016-Aug-23 18:33N 48°30' W 122°45'1010.1
2016-Aug-23 17:33N 48°40' W 122°44'10 9.8
2016-Aug-23 16:33N 48°47' W 122°53'10 9.9
2016-Aug-23 15:33N 48°52' W 123°06'1010.2
2016-Aug-23 14:33N 48°59' W 123°18'1010.5
2016-Aug-23 13:33N 49°07' W 123°28'1110.7
2016-Aug-23 12:34N 49°14' W 123°40'1010.2
2016-Aug-23 11:33N 49°20' W 123°53'1010.1
2016-Aug-23 10:33N 49°27' W 124°05'1010.4
2016-Aug-23 09:33N 49°33' W 124°18'1010.4
2016-Aug-23 08:33N 49°38' W 124°32'1010.4
2016-Aug-23 07:33N 49°44' W 124°45'1110.6
2016-Aug-23 06:33N 49°51' W 124°58'8 7.9
2016-Aug-23 05:33N 49°57' W 125°06'8 8.0
2016-Aug-23 04:33N 50°03' W 125°14'10 9.8
2016-Aug-23 03:33N 50°11' W 125°22'4510.4
2016-Aug-22 23:10N 50°30' W 126°27'10 9.6
2016-Aug-22 22:05N 50°35' W 126°42'510.2
2016-Aug-22 21:33N 50°38' W 126°48'1010.2
2016-Aug-22 20:32N 50°43' W 127°03'1010.3
2016-Aug-22 19:34N 50°49' W 127°16'1010.1
2016-Aug-22 18:33N 50°56' W 127°27'9 9.3
2016-Aug-22 17:33N 51°02' W 127°38'9 9.1
2016-Aug-22 16:33N 51°08' W 127°49'11 9.7
2016-Aug-22 15:27N 51°18' W 127°55'  
2016-Aug-18 23:25N 58°17' W 136°20'1010.3
2016-Aug-18 22:27N 58°16' W 136°01'9 9.9
2016-Aug-18 21:32N 58°17' W 135°44'  
2016-Aug-14 17:33N 51°25' W 128°04'9 9.0
2016-Aug-14 16:31N 51°18' W 127°55'9 9.2
2016-Aug-14 15:33N 51°10' W 127°50'8 8.3
2016-Aug-14 14:33N 51°04' W 127°41'9 9.3
2016-Aug-14 13:33N 50°58' W 127°30'1010.4
2016-Aug-14 12:33N 50°51' W 127°18'1310.2
2016-Aug-14 11:17N 50°43' W 127°01'38 9.6
2016-Aug-14 07:18N 50°28' W 126°06'7 8.6
2016-Aug-14 06:27N 50°24' W 125°56'17 9.1
2016-Aug-14 04:33N 50°21' W 125°29'9 8.9
2016-Aug-14 03:33N 50°13' W 125°23'9 9.4
2016-Aug-14 02:33N 50°05' W 125°16'  
Track history (hours):
 
Tides and Currents Weather Stations Pressure Air Temp Water Temp Dewpoint Dewpoint Depression Visibility Wind Speed Wind Dir Waves Ship Positions

Pacific Titan

Owner: WESTERN TOWBOAT CO, SEATTLE, WA. More information available from US FCC via Universal Licensing System and Coast Guard Vessel Documentation Center.

Last reported at 2016-Aug-24 02:33 UTC. Time now 2016-Aug-26 01:26 UTC.
Position N 47°40' W 122°24'.

Type: Tow > 200 m length. MMSI: 338855000.

Date/timePositionNaut miles runAvg speedWind from/ knotsBaromVisibWave heightAir tempDewpointWater temp
2016-Aug-24 02:33N 47°40' W 122°24'4 4.4
2016-Aug-24 01:34N 47°36' W 122°22'4 4.1
2016-Aug-24 00:34N 47°38' W 122°27'9 8.9
2016-Aug-23 23:33N 47°47' W 122°27'1010.0
2016-Aug-23 22:33N 47°56' W 122°33'9 9.0
2016-Aug-23 21:30N 48°05' W 122°40'7 7.6
2016-Aug-23 20:32N 48°10' W 122°47'9 9.3
2016-Aug-23 19:32N 48°20' W 122°47'1010.4
2016-Aug-23 18:33N 48°30' W 122°45'1010.1
2016-Aug-23 17:33N 48°40' W 122°44'10 9.8
2016-Aug-23 16:33N 48°47' W 122°53'10 9.9
2016-Aug-23 15:33N 48°52' W 123°06'1010.2
2016-Aug-23 14:33N 48°59' W 123°18'1010.5
2016-Aug-23 13:33N 49°07' W 123°28'1110.7
2016-Aug-23 12:34N 49°14' W 123°40'1010.2
2016-Aug-23 11:33N 49°20' W 123°53'1010.1
2016-Aug-23 10:33N 49°27' W 124°05'1010.4
2016-Aug-23 09:33N 49°33' W 124°18'1010.4
2016-Aug-23 08:33N 49°38' W 124°32'1010.4
2016-Aug-23 07:33N 49°44' W 124°45'1110.6
2016-Aug-23 06:33N 49°51' W 124°58'8 7.9
2016-Aug-23 05:33N 49°57' W 125°06'8 8.0
2016-Aug-23 04:33N 50°03' W 125°14'10 9.8
2016-Aug-23 03:33N 50°11' W 125°22'4510.4
2016-Aug-22 23:10N 50°30' W 126°27'10 9.6
2016-Aug-22 22:05N 50°35' W 126°42'510.2
2016-Aug-22 21:33N 50°38' W 126°48'1010.2
2016-Aug-22 20:32N 50°43' W 127°03'1010.3
2016-Aug-22 19:34N 50°49' W 127°16'1010.1
2016-Aug-22 18:33N 50°56' W 127°27'9 9.3
2016-Aug-22 17:33N 51°02' W 127°38'9 9.1
2016-Aug-22 16:33N 51°08' W 127°49'11 9.7
2016-Aug-22 15:27N 51°18' W 127°55'  
2016-Aug-18 23:25N 58°17' W 136°20'1010.3
2016-Aug-18 22:27N 58°16' W 136°01'9 9.9
2016-Aug-18 21:32N 58°17' W 135°44'  
2016-Aug-14 17:33N 51°25' W 128°04'9 9.0
2016-Aug-14 16:31N 51°18' W 127°55'9 9.2
2016-Aug-14 15:33N 51°10' W 127°50'8 8.3
2016-Aug-14 14:33N 51°04' W 127°41'9 9.3
2016-Aug-14 13:33N 50°58' W 127°30'1010.4
2016-Aug-14 12:33N 50°51' W 127°18'1310.2
2016-Aug-14 11:17N 50°43' W 127°01'38 9.6
2016-Aug-14 07:18N 50°28' W 126°06'7 8.6
2016-Aug-14 06:27N 50°24' W 125°56'17 9.1
2016-Aug-14 04:33N 50°21' W 125°29'9 8.9
2016-Aug-14 03:33N 50°13' W 125°23'9 9.4
2016-Aug-14 02:33N 50°05' W 125°16'  

Dump ship's entire track history